Terminal Aerodrome Forecast
Issued by NWS Mt. Holly, NJ

Home | Current Version | Previous Version | Text Only | Print | Product List | Glossary On
Versions: 1 2 3 4 5 6 7 8 9 10 11 12 13 14 15 16 17 18 19 20
000
FTUS41 KPHI 221100
TAFILG
TAF
KILG 221135Z 2212/2312 07005KT P6SM SCT008 BKN021
      TEMPO 2212/2214 BKN008
     FM221500 08004KT P6SM OVC020
     FM221700 11008KT P6SM VCSH BKN040
     FM230300 09010KT P6SM OVC015
     FM230700 06007KT 5SM BR OVC007=

USA.gov is the U.S. government's official web portal to all federal, state and local government web resources and services.